Time;durP1;ratioP1;P1;durP2;ratioP2;P2;SDS_P1;SDS_P2;PMS_P1;PMS_P2;Temp;Humidity;BMP_temperature;BMP_pressure;BME280_temperature;BME280_humidity;BME280_pressure;Samples;Min_cycle;Max_cycle;Signal;HPM_P1;HPM_P2
2024/01/16 00:01:18;;;;;;;14.27;8.40;;;;;;;4.20;77.67;100046.22;5086421;28;20110;-84
2024/01/16 00:03:44;;;;;;;12.63;8.02;;;;;;;4.02;77.43;100004.50;5088269;28;20520;-85
2024/01/16 00:06:10;;;;;;;12.57;7.95;;;;;;;4.03;77.90;100003.72;5090288;28;20028;-85
2024/01/16 00:08:36;;;;;;;12.45;7.72;;;;;;;3.91;78.05;99972.78;5088383;28;20032;-85
2024/01/16 00:11:02;;;;;;;13.32;8.10;;;;;;;4.07;77.54;99983.38;5088963;28;20031;-85
2024/01/16 00:13:28;;;;;;;14.10;7.93;;;;;;;4.27;77.23;100032.88;5069715;28;20047;-84
2024/01/16 00:15:56;;;;;;;11.75;7.63;;;;;;;4.03;77.24;99978.78;5087683;28;20390;-86
2024/01/16 00:18:22;;;;;;;13.73;7.93;;;;;;;4.49;77.32;100068.84;5106871;28;20114;-85
2024/01/16 00:20:48;;;;;;;11.80;8.32;;;;;;;4.49;77.30;100074.91;5088510;28;20107;-86
2024/01/16 00:23:14;;;;;;;11.98;7.70;;;;;;;4.39;77.08;100035.41;5084021;28;20567;-86
2024/01/16 00:25:40;;;;;;;12.27;7.82;;;;;;;4.33;77.52;100035.00;5088941;28;20024;-86
2024/01/16 00:28:06;;;;;;;11.27;7.35;;;;;;;4.27;77.50;100028.59;5088446;28;20046;-86
2024/01/16 00:30:33;;;;;;;12.88;7.50;;;;;;;4.31;77.20;100036.59;5087270;28;20497;-86
2024/01/16 00:32:59;;;;;;;14.02;8.40;;;;;;;4.18;77.28;100006.44;5088163;28;20024;-86
2024/01/16 00:35:25;;;;;;;12.10;7.53;;;;;;;4.49;77.33;100054.22;5088643;28;20028;-86
2024/01/16 00:37:52;;;;;;;12.68;7.90;;;;;;;4.36;77.27;100032.59;5071513;28;20078;-86
2024/01/16 00:40:17;;;;;;;14.07;8.27;;;;;;;4.07;77.78;99978.19;5070870;28;20043;-86
2024/01/16 00:42:43;;;;;;;13.05;8.20;;;;;;;4.06;77.24;99972.91;5086277;28;20032;-86
2024/01/16 00:45:09;;;;;;;12.68;8.07;;;;;;;4.44;77.45;100034.00;5084568;28;20031;-85
2024/01/16 00:47:35;;;;;;;13.43;7.72;;;;;;;4.38;77.28;100011.25;5103957;28;20031;-86
2024/01/16 00:50:01;;;;;;;13.15;7.97;;;;;;;4.40;77.51;100021.69;5065845;28;20423;-86
2024/01/16 00:52:27;;;;;;;13.15;7.53;;;;;;;4.46;77.22;100033.31;5069854;28;20036;-86
2024/01/16 00:54:53;;;;;;;12.23;7.85;;;;;;;4.29;77.50;100000.28;5087766;28;20478;-86
2024/01/16 00:57:19;;;;;;;12.82;7.75;;;;;;;3.86;77.50;99943.19;5088495;28;20631;-86
2024/01/16 00:59:48;;;;;;;12.75;7.75;;;;;;;4.03;77.61;99975.31;5085763;28;20032;-87
2024/01/16 01:02:14;;;;;;;11.90;7.88;;;;;;;4.08;77.64;99967.09;5086821;28;20795;-86
2024/01/16 01:04:41;;;;;;;12.57;7.50;;;;;;;4.40;77.40;100001.91;5071114;28;20055;-86
2024/01/16 01:07:08;;;;;;;12.10;7.38;;;;;;;4.19;77.55;99970.38;5087865;28;20092;-86
2024/01/16 01:09:34;;;;;;;12.30;8.00;;;;;;;4.45;77.43;100018.63;5070200;28;20044;-86
2024/01/16 01:11:59;;;;;;;11.13;7.47;;;;;;;4.21;77.39;99978.22;5088258;28;20051;-87
2024/01/16 01:14:29;;;;;;;12.98;7.97;;;;;;;4.19;77.56;99985.88;5077260;28;20036;-87
2024/01/16 01:16:55;;;;;;;13.20;7.93;;;;;;;4.32;77.72;100016.03;5090771;28;20039;-87
2024/01/16 01:19:21;;;;;;;10.00;6.93;;;;;;;3.92;77.34;99937.56;5092112;28;20386;-87
2024/01/16 01:21:47;;;;;;;11.25;7.43;;;;;;;4.25;77.71;99991.47;5082614;28;20028;-87
2024/01/16 01:24:12;;;;;;;11.48;7.75;;;;;;;4.31;77.23;99992.66;5091369;28;20035;-87
2024/01/16 01:26:38;;;;;;;10.73;7.20;;;;;;;4.45;77.87;100018.63;5092514;28;20032;-87
2024/01/16 01:29:04;;;;;;;11.18;7.43;;;;;;;4.34;77.73;99996.34;5092182;28;20038;-88
2024/01/16 01:31:29;;;;;;;10.77;7.07;;;;;;;4.06;77.52;99942.84;5090520;28;20084;-87
2024/01/16 01:33:55;;;;;;;12.32;7.22;;;;;;;3.98;77.64;99941.44;5091018;28;20132;-86
2024/01/16 01:36:21;;;;;;;11.60;7.47;;;;;;;3.94;77.78;99915.31;5091700;28;20035;-87
2024/01/16 01:38:46;;;;;;;11.32;7.55;;;;;;;4.27;77.61;99970.88;5092255;28;20037;-87
2024/01/16 01:41:12;;;;;;;10.55;7.07;;;;;;;4.16;77.91;99958.94;5089176;28;20493;-87
2024/01/16 01:43:39;;;;;;;11.32;7.18;;;;;;;4.24;77.73;99974.16;5073376;28;20443;-87
2024/01/16 01:46:10;;;;;;;11.55;7.28;;;;;;;4.21;77.80;99961.03;5090291;28;20044;-87
2024/01/16 01:48:38;;;;;;;10.23;6.68;;;;;;;4.54;77.46;100010.56;5073220;28;20032;-87
2024/01/16 01:51:04;;;;;;;11.00;7.50;;;;;;;4.40;78.00;99985.50;5104222;28;20028;-87
2024/01/16 01:53:31;;;;;;;11.35;7.03;;;;;;;4.50;77.82;100005.97;5100340;28;20051;-86
2024/01/16 01:55:57;;;;;;;10.95;7.15;;;;;;;4.02;77.73;99922.75;5068426;28;20028;-85
2024/01/16 01:58:23;;;;;;;10.40;7.18;;;;;;;4.46;77.59;99998.81;5086382;28;20036;-87
2024/01/16 02:00:48;;;;;;;10.40;6.80;;;;;;;4.13;77.97;99936.38;5091526;28;20044;-88
2024/01/16 02:03:14;;;;;;;10.73;6.88;;;;;;;4.29;77.39;99969.28;5071852;28;20039;-87
2024/01/16 02:05:40;;;;;;;10.90;7.25;;;;;;;4.46;77.78;99993.66;5072841;28;20032;-87
2024/01/16 02:08:06;;;;;;;10.25;6.82;;;;;;;4.57;77.81;99999.53;5087072;28;20517;-87
2024/01/16 02:10:32;;;;;;;9.73;6.80;;;;;;;3.91;77.43;99887.56;5084457;28;20554;-87
2024/01/16 02:12:58;;;;;;;11.50;6.95;;;;;;;4.49;77.77;99987.00;5084972;28;20063;-87
2024/01/16 02:15:24;;;;;;;10.88;6.78;;;;;;;4.56;77.51;99980.53;5081480;28;20074;-87
2024/01/16 02:17:50;;;;;;;10.85;6.90;;;;;;;4.44;77.88;99969.38;5102052;28;20036;-87
2024/01/16 02:20:15;;;;;;;13.77;7.28;;;;;;;4.47;77.51;99964.44;5072001;28;20036;-86
2024/01/16 02:22:46;;;;;;;10.50;7.10;;;;;;;4.18;77.63;99919.47;5087534;28;20035;-87
2024/01/16 02:25:11;;;;;;;10.15;6.60;;;;;;;4.55;77.79;99983.00;5085594;28;20058;-87
2024/01/16 02:27:37;;;;;;;10.77;6.72;;;;;;;4.30;77.92;99940.06;5086203;28;20485;-87
2024/01/16 02:30:03;;;;;;;10.48;6.75;;;;;;;4.30;77.66;99945.25;5072292;28;20465;-87
2024/01/16 02:32:29;;;;;;;11.07;7.05;;;;;;;4.26;77.87;99940.66;5079263;28;20027;-87
2024/01/16 02:34:54;;;;;;;10.07;6.60;;;;;;;4.21;77.66;99922.28;5088226;28;20043;-87
2024/01/16 02:37:20;;;;;;;11.27;7.00;;;;;;;4.47;77.76;99959.28;5088554;28;20026;-87
2024/01/16 02:39:46;;;;;;;11.55;7.28;;;;;;;4.38;77.94;99943.13;5089011;28;20046;-86
2024/01/16 02:42:12;;;;;;;11.27;7.25;;;;;;;4.35;78.02;99953.28;5090128;28;20012;-87
2024/01/16 02:44:37;;;;;;;10.60;6.97;;;;;;;4.48;77.90;99972.28;5071376;28;20052;-87
2024/01/16 02:47:03;;;;;;;10.43;6.28;;;;;;;4.29;77.80;99934.00;5083644;28;20036;-85
2024/01/16 02:49:32;;;;;;;11.52;6.70;;;;;;;4.12;77.45;99887.19;5088371;28;20042;-88
2024/01/16 02:51:58;;;;;;;10.13;6.57;;;;;;;4.15;77.58;99898.63;5067674;28;20472;-88
2024/01/16 02:54:24;;;;;;;;;;;;;;;4.57;77.99;99976.25;5087826;28;20043;-88
2024/01/16 02:56:49;;;;;;;11.50;6.63;;;;;;;4.15;77.88;99916.72;5074882;28;19923;-88
2024/01/16 02:59:15;;;;;;;10.43;6.90;;;;;;;4.57;77.60;99984.94;5088883;28;20032;-87
2024/01/16 03:01:41;;;;;;;9.10;6.30;;;;;;;4.18;77.82;99916.91;5083043;28;20039;-87
2024/01/16 03:04:07;;;;;;;9.45;6.32;;;;;;;4.32;77.49;99946.25;5078968;28;20032;-87
2024/01/16 03:06:33;;;;;;;9.45;6.30;;;;;;;4.60;77.52;100002.31;5089968;28;20776;-87
2024/01/16 03:08:59;;;;;;;10.82;6.80;;;;;;;4.03;77.68;99908.16;5087366;28;20036;-87
2024/01/16 03:11:25;;;;;;;10.45;6.82;;;;;;;4.02;77.89;99908.94;5088246;28;20100;-88
2024/01/16 03:13:53;;;;;;;11.07;6.90;;;;;;;4.23;77.93;99940.44;5068380;28;20497;-87
2024/01/16 03:16:18;;;;;;;11.38;6.80;;;;;;;4.17;77.72;99933.22;5066423;28;20088;-87
2024/01/16 03:18:44;;;;;;;10.90;6.55;;;;;;;4.41;78.10;99989.88;5088480;28;20386;-87
2024/01/16 03:21:13;;;;;;;11.63;6.72;;;;;;;4.46;77.71;100001.41;5072491;28;20557;-87
2024/01/16 03:23:41;;;;;;;10.38;6.75;;;;;;;4.64;77.72;100030.16;5065966;28;20032;-88
2024/01/16 03:26:12;;;;;;;10.27;6.80;;;;;;;4.05;77.90;99933.28;5088721;28;20046;-87
2024/01/16 03:28:38;;;;;;;10.63;6.72;;;;;;;3.92;77.53;99899.69;5090326;28;20032;-87
2024/01/16 03:31:04;;;;;;;8.80;6.10;;;;;;;4.42;77.77;99982.25;5073462;28;20032;-87
2024/01/16 03:33:29;;;;;;;9.77;6.30;;;;;;;4.56;77.59;100021.91;5088682;28;20414;-87
2024/01/16 03:35:55;;;;;;;10.45;6.63;;;;;;;4.26;77.65;99961.34;5064748;28;20040;-88
2024/01/16 03:38:20;;;;;;;10.45;6.25;;;;;;;4.35;77.63;99974.84;5089444;28;20055;-88
2024/01/16 03:40:46;;;;;;;10.13;6.25;;;;;;;4.17;77.53;99940.97;5087684;28;20032;-88
2024/01/16 03:43:12;;;;;;;10.70;6.22;;;;;;;4.42;77.57;99981.31;5089215;28;20016;-88
2024/01/16 03:45:38;;;;;;;9.13;5.90;;;;;;;4.07;77.63;99926.53;5089494;28;20036;-87
2024/01/16 03:48:04;;;;;;;;;;;;;;;4.64;77.42;100019.84;5089450;28;20040;-87
2024/01/16 03:50:30;;;;;;;10.20;6.30;;;;;;;4.56;77.54;100024.50;5088654;28;19969;-87
2024/01/16 03:52:56;;;;;;;11.05;6.28;;;;;;;4.26;77.93;99972.56;5087438;28;20048;-87
2024/01/16 03:55:24;;;;;;;10.48;6.43;;;;;;;4.19;77.93;99965.22;5090143;28;20040;-87
2024/01/16 03:57:50;;;;;;;9.85;6.55;;;;;;;4.65;77.91;100045.75;5087354;28;20058;-87
2024/01/16 04:00:16;;;;;;;9.43;6.13;;;;;;;4.22;77.61;99978.31;5104625;28;20040;-88
2024/01/16 04:02:42;;;;;;;9.27;6.97;;;;;;;4.44;77.86;100005.59;5087219;28;20032;-87
2024/01/16 04:05:08;;;;;;;9.98;6.45;;;;;;;4.61;77.80;100028.25;5074795;28;20036;-88
2024/01/16 04:07:34;;;;;;;9.90;6.00;;;;;;;4.49;77.25;100015.44;5087206;28;20197;-87
2024/01/16 04:10:01;;;;;;;10.70;6.20;;;;;;;4.35;77.42;99998.13;5087667;28;20070;-86
2024/01/16 04:12:30;;;;;;;10.38;6.60;;;;;;;4.54;77.94;100054.50;5070647;28;20119;-88
2024/01/16 04:14:56;;;;;;;9.32;6.15;;;;;;;4.44;77.27;100032.31;5079574;28;20028;-88
2024/01/16 04:17:23;;;;;;;9.25;6.20;;;;;;;4.53;77.81;100047.56;5085046;28;20024;-88
2024/01/16 04:19:49;;;;;;;9.45;6.03;;;;;;;4.43;77.78;100032.25;5085997;28;20730;-89
2024/01/16 04:22:14;;;;;;;9.30;6.30;;;;;;;4.31;77.67;100016.78;5087573;28;20070;-87
2024/01/16 04:24:41;;;;;;;9.07;5.72;;;;;;;4.66;77.56;100077.72;5082728;28;20114;-88
2024/01/16 04:27:06;;;;;;;9.40;6.68;;;;;;;4.59;77.93;100079.00;5088047;28;20020;-86
2024/01/16 04:29:32;;;;;;;9.30;6.03;;;;;;;4.28;77.41;100019.19;5085939;28;20035;-86
2024/01/16 04:31:59;;;;;;;10.30;6.35;;;;;;;4.16;77.60;100013.19;5071131;28;20036;-86
2024/01/16 04:34:25;;;;;;;9.18;6.18;;;;;;;4.31;77.59;100036.59;5089406;28;20114;-86
2024/01/16 04:36:51;;;;;;;8.95;5.90;;;;;;;4.28;77.66;100030.41;5088178;28;20099;-86
2024/01/16 04:39:17;;;;;;;8.68;5.95;;;;;;;4.54;77.51;100077.78;5087801;28;20508;-86
2024/01/16 04:41:43;;;;;;;10.55;6.00;;;;;;;4.66;77.83;100101.88;5085691;28;20024;-86
2024/01/16 04:44:09;;;;;;;11.18;6.85;;;;;;;4.69;77.68;100108.94;5078559;28;20024;-89
2024/01/16 04:46:34;;;;;;;9.07;5.78;;;;;;;4.58;78.10;100100.47;5069374;28;20081;-87
2024/01/16 04:49:00;;;;;;;8.90;5.88;;;;;;;4.15;77.53;100017.47;5087256;28;20073;-86
2024/01/16 04:51:26;;;;;;;9.93;6.55;;;;;;;4.51;77.72;100097.34;5078977;28;20063;-86
2024/01/16 04:53:52;;;;;;;10.05;6.38;;;;;;;4.46;78.02;100092.78;5092486;28;20035;-87
2024/01/16 04:56:18;;;;;;;9.52;5.90;;;;;;;4.57;78.13;100123.63;5088673;28;20528;-87
2024/01/16 04:58:44;;;;;;;9.15;5.82;;;;;;;4.32;78.06;100100.38;5090265;28;20063;-88
2024/01/16 05:01:12;;;;;;;9.90;6.43;;;;;;;4.51;77.73;100118.97;5071652;28;20074;-88
2024/01/16 05:03:38;;;;;;;10.13;6.65;;;;;;;4.25;77.82;100081.91;5087298;28;20024;-87
2024/01/16 05:06:04;;;;;;;9.85;6.40;;;;;;;4.48;77.83;100111.88;5088972;28;20141;-87
2024/01/16 05:08:30;;;;;;;8.73;5.63;;;;;;;4.18;77.52;100055.53;5090482;28;20082;-87
2024/01/16 05:10:56;;;;;;;9.32;6.13;;;;;;;4.51;77.73;100111.22;5091206;28;20028;-87
2024/01/16 05:13:22;;;;;;;;;;;;;;;4.71;77.55;100153.00;5085201;28;20123;-87
2024/01/16 05:15:48;;;;;;;10.23;6.22;;;;;;;4.72;77.94;100153.13;5102797;27;19999;-86
2024/01/16 05:18:14;;;;;;;;;;;;;;;4.68;78.07;100162.34;5087167;28;20034;-87
2024/01/16 05:20:40;;;;;;;7.97;5.70;;;;;;;4.33;77.68;100104.78;5085829;28;20316;-88
2024/01/16 05:23:05;;;;;;;9.77;6.15;;;;;;;4.22;77.79;100102.34;5090509;28;20034;-88
2024/01/16 05:25:32;;;;;;;9.77;6.20;;;;;;;4.34;78.02;100117.81;5068721;28;20039;-88
2024/01/16 05:27:58;;;;;;;8.90;6.05;;;;;;;4.61;77.98;100164.41;5082618;28;20027;-88
2024/01/16 05:30:23;;;;;;;9.57;6.45;;;;;;;4.58;77.94;100159.03;5069412;28;20119;-87
2024/01/16 05:32:49;;;;;;;8.40;5.75;;;;;;;4.37;77.69;100111.94;5084136;28;20040;-87
2024/01/16 05:35:15;;;;;;;9.57;6.15;;;;;;;4.45;77.88;100140.09;5088707;28;20032;-87
2024/01/16 05:37:41;;;;;;;9.43;6.28;;;;;;;4.54;77.83;100170.84;5089214;28;20497;-86
2024/01/16 05:40:07;;;;;;;9.80;6.38;;;;;;;4.60;77.46;100179.03;5089081;28;20055;-86
2024/01/16 05:42:34;;;;;;;10.85;6.93;;;;;;;4.41;77.74;100150.16;5088096;28;20118;-86
2024/01/16 05:45:00;;;;;;;8.68;5.97;;;;;;;4.58;78.19;100187.50;5070911;28;20024;-87
2024/01/16 05:47:27;;;;;;;9.20;6.32;;;;;;;4.34;77.81;100151.41;5088728;28;20032;-85
2024/01/16 05:49:54;;;;;;;10.20;6.47;;;;;;;4.80;77.46;100229.50;5090557;28;20032;-86
2024/01/16 05:52:20;;;;;;;9.93;6.15;;;;;;;4.46;77.89;100196.19;5086786;28;20028;-86
2024/01/16 05:54:46;;;;;;;9.95;6.85;;;;;;;4.36;77.58;100169.59;5092452;28;20081;-85
2024/01/16 05:57:11;;;;;;;9.77;6.22;;;;;;;4.25;77.54;100150.75;5072479;28;20032;-85
2024/01/16 05:59:38;;;;;;;8.65;5.93;;;;;;;4.60;77.55;100230.75;5083215;28;20035;-85
2024/01/16 06:02:04;;;;;;;9.45;6.18;;;;;;;4.74;77.50;100259.25;5089491;28;20024;-85
2024/01/16 06:04:29;;;;;;;9.77;6.15;;;;;;;4.38;77.72;100201.59;5076291;28;20047;-85
2024/01/16 06:06:55;;;;;;;10.13;6.53;;;;;;;4.27;77.06;100169.84;5088098;28;20536;-84
2024/01/16 06:09:21;;;;;;;10.52;5.93;;;;;;;4.57;77.61;100215.03;5080197;28;20132;-84
2024/01/16 06:11:47;;;;;;;10.07;6.25;;;;;;;4.74;77.28;100270.50;5083274;28;20036;-85
2024/01/16 06:14:13;;;;;;;8.63;5.70;;;;;;;4.31;77.65;100208.03;5084417;28;20037;-85
2024/01/16 06:16:40;;;;;;;9.80;5.90;;;;;;;4.64;77.58;100279.31;5085917;28;20068;-87
2024/01/16 06:19:07;;;;;;;8.98;5.65;;;;;;;4.58;77.70;100258.19;5083837;28;20074;-86
2024/01/16 06:21:33;;;;;;;9.07;6.22;;;;;;;4.67;77.14;100276.91;5088912;28;20020;-85
2024/01/16 06:23:59;;;;;;;10.60;6.40;;;;;;;4.55;77.56;100267.41;5081721;28;20054;-85
2024/01/16 06:26:25;;;;;;;8.95;6.20;;;;;;;4.58;76.95;100275.41;5071353;28;20036;-86
2024/01/16 06:28:51;;;;;;;9.88;6.10;;;;;;;4.63;77.46;100297.28;5091038;28;20088;-85
2024/01/16 06:31:17;;;;;;;10.02;6.70;;;;;;;4.85;77.60;100352.31;5085662;28;20114;-86
2024/01/16 06:33:44;;;;;;;8.68;5.95;;;;;;;4.53;77.51;100294.84;5092815;28;20149;-86
2024/01/16 06:36:10;;;;;;;9.55;5.93;;;;;;;4.56;77.59;100305.44;5088310;28;20490;-85
2024/01/16 06:38:39;;;;;;;9.10;6.15;;;;;;;4.76;77.52;100338.72;5087676;28;20032;-85
2024/01/16 06:41:05;;;;;;;10.20;6.47;;;;;;;4.62;77.20;100323.97;5086376;28;20071;-86
2024/01/16 06:43:31;;;;;;;9.45;6.03;;;;;;;4.58;77.58;100321.94;5089750;28;20462;-88
2024/01/16 06:45:58;;;;;;;9.98;6.32;;;;;;;4.47;77.65;100300.50;5086785;28;20032;-86
2024/01/16 06:48:23;;;;;;;10.75;6.80;;;;;;;4.46;77.48;100307.34;5090523;28;20038;-86
2024/01/16 06:50:49;;;;;;;9.15;5.75;;;;;;;4.77;77.47;100366.41;5092068;28;20028;-87
2024/01/16 06:53:15;;;;;;;9.07;5.85;;;;;;;4.51;77.20;100312.88;5083165;28;20040;-86
2024/01/16 06:55:41;;;;;;;9.45;6.30;;;;;;;4.45;77.11;100305.56;5090172;28;20024;-86
2024/01/16 06:58:06;;;;;;;10.10;6.30;;;;;;;4.25;77.03;100265.41;5089062;28;20028;-86
2024/01/16 07:00:32;;;;;;;9.10;6.22;;;;;;;4.47;77.52;100309.16;5086606;28;20059;-86
2024/01/16 07:03:02;;;;;;;8.80;5.95;;;;;;;4.82;77.48;100377.97;5084779;28;20250;-86
2024/01/16 07:05:29;;;;;;;9.25;6.13;;;;;;;4.77;77.42;100357.75;5086051;28;20406;-86
2024/01/16 07:07:55;;;;;;;8.93;6.15;;;;;;;4.43;77.25;100307.13;5088752;28;20066;-87
2024/01/16 07:10:22;;;;;;;8.40;5.60;;;;;;;4.59;77.03;100332.41;5083062;28;20027;-84
2024/01/16 07:12:49;;;;;;;10.05;6.10;;;;;;;4.47;77.64;100329.84;5075231;28;20029;-86
2024/01/16 07:15:15;;;;;;;8.15;5.53;;;;;;;4.43;77.72;100324.34;5095868;28;20024;-86
2024/01/16 07:17:41;;;;;;;9.60;6.38;;;;;;;4.72;77.85;100383.31;5069440;28;20066;-86
2024/01/16 07:20:07;;;;;;;10.77;6.47;;;;;;;4.45;77.47;100341.75;5083442;28;20436;-86
2024/01/16 07:22:34;;;;;;;10.25;6.25;;;;;;;4.96;77.46;100427.22;5089032;28;20024;-86
2024/01/16 07:25:00;;;;;;;10.30;6.05;;;;;;;4.83;77.20;100421.16;5087911;28;20043;-85
2024/01/16 07:27:26;;;;;;;9.73;6.55;;;;;;;4.66;77.34;100391.50;5084264;28;20485;-87
2024/01/16 07:29:51;;;;;;;9.32;6.50;;;;;;;4.45;77.13;100357.25;5089075;28;20074;-87
2024/01/16 07:32:17;;;;;;;9.30;6.25;;;;;;;4.67;77.24;100400.16;5085411;28;20507;-87
2024/01/16 07:34:44;;;;;;;12.60;6.30;;;;;;;5.00;77.04;100465.47;5090111;28;20040;-85
2024/01/16 07:37:10;;;;;;;8.68;5.53;;;;;;;4.76;77.10;100428.38;5089319;28;20028;-85
2024/01/16 07:39:35;;;;;;;10.60;6.60;;;;;;;4.59;77.22;100406.47;5087636;28;20032;-85
2024/01/16 07:42:01;;;;;;;10.02;6.07;;;;;;;4.91;77.27;100468.28;5090574;28;20035;-85
2024/01/16 07:44:27;;;;;;;10.40;6.28;;;;;;;4.62;77.39;100420.53;5071555;28;20416;-85
2024/01/16 07:46:53;;;;;;;9.52;6.18;;;;;;;4.73;77.64;100446.25;5093272;28;20024;-85
2024/01/16 07:49:18;;;;;;;9.52;6.03;;;;;;;4.69;77.41;100450.31;5088952;28;20024;-85
2024/01/16 07:51:44;;;;;;;10.13;6.50;;;;;;;4.89;77.17;100498.31;5096634;28;20036;-86
2024/01/16 07:54:10;;;;;;;9.48;6.15;;;;;;;4.98;77.42;100514.50;5088764;28;20035;-85
2024/01/16 07:56:36;;;;;;;;;;;;;;;5.02;77.12;100529.47;5072211;28;20504;-85
2024/01/16 07:59:02;;;;;;;8.65;5.60;;;;;;;4.69;77.14;100471.88;5090213;28;19912;-87
2024/01/16 08:01:28;;;;;;;9.32;5.68;;;;;;;4.61;77.28;100470.44;5099012;28;20034;-86
2024/01/16 08:03:54;;;;;;;;;;;;;;;5.00;77.38;100541.38;5077487;28;20043;-87
2024/01/16 08:06:20;;;;;;;8.77;5.93;;;;;;;4.68;77.00;100508.00;5088075;28;19916;-88
2024/01/16 08:08:46;;;;;;;10.25;6.32;;;;;;;4.71;77.07;100534.09;5105810;28;20020;-86
2024/01/16 08:11:12;;;;;;;9.05;6.10;;;;;;;5.12;77.16;100603.47;5087402;28;20084;-86
2024/01/16 08:13:38;;;;;;;9.38;6.57;;;;;;;4.75;77.13;100550.75;5090011;28;20115;-86
2024/01/16 08:16:04;;;;;;;8.85;6.32;;;;;;;4.73;77.28;100557.47;5087490;28;20671;-87
2024/01/16 08:18:31;;;;;;;10.13;6.70;;;;;;;4.83;77.31;100591.00;5077084;28;20032;-87
2024/01/16 08:20:57;;;;;;;9.95;6.60;;;;;;;4.97;76.91;100603.25;5092484;28;20123;-86
2024/01/16 08:23:23;;;;;;;9.35;6.05;;;;;;;4.76;76.97;100578.38;5094922;28;20119;-87
2024/01/16 08:25:51;;;;;;;8.80;6.22;;;;;;;5.15;76.88;100639.06;5097706;28;20451;-86
2024/01/16 08:28:17;;;;;;;10.10;6.40;;;;;;;4.74;77.10;100590.31;5092257;28;20093;-88
2024/01/16 08:30:43;;;;;;;;;;;;;;;5.08;77.33;100650.66;5093303;28;20039;-87
2024/01/16 08:33:09;;;;;;;8.23;5.65;;;;;;;4.88;77.13;100626.75;5093999;28;19919;-86
2024/01/16 08:35:34;;;;;;;11.43;6.93;;;;;;;5.00;77.16;100650.06;5091500;28;20039;-87
2024/01/16 08:38:01;;;;;;;10.57;6.60;;;;;;;4.56;77.06;100575.22;5101726;28;20151;-88
2024/01/16 08:40:26;;;;;;;10.73;6.53;;;;;;;4.87;77.22;100617.22;5092988;28;20024;-85
2024/01/16 08:42:54;;;;;;;9.20;6.03;;;;;;;5.14;76.97;100656.25;5097845;28;20050;-85
2024/01/16 08:45:21;;;;;;;8.60;6.15;;;;;;;4.85;76.92;100617.91;5096589;28;20031;-85
2024/01/16 08:47:47;;;;;;;10.75;6.55;;;;;;;5.18;76.81;100668.63;5102071;28;20027;-85
2024/01/16 08:50:13;;;;;;;11.65;6.38;;;;;;;4.95;76.62;100633.28;5091897;28;20028;-85
2024/01/16 08:52:38;;;;;;;10.15;6.57;;;;;;;4.82;76.94;100615.94;5091765;28;20036;-85
2024/01/16 08:55:04;;;;;;;9.07;6.38;;;;;;;4.83;76.85;100622.06;5092260;28;20405;-86
2024/01/16 08:57:30;;;;;;;8.90;5.97;;;;;;;4.77;76.95;100616.41;5092669;28;20547;-86
2024/01/16 08:59:56;;;;;;;9.65;6.57;;;;;;;5.00;77.18;100652.66;5091961;28;20035;-85
2024/01/16 09:02:21;;;;;;;8.80;6.28;;;;;;;4.90;77.28;100653.66;5092327;28;20500;-85
2024/01/16 09:04:50;;;;;;;10.75;6.57;;;;;;;4.75;77.17;100610.22;5101899;28;20039;-86
2024/01/16 09:07:16;;;;;;;8.35;6.00;;;;;;;4.80;77.16;100630.47;5080372;28;20024;-84
2024/01/16 09:09:42;;;;;;;10.07;6.90;;;;;;;4.75;76.52;100626.66;5100080;28;20028;-84
2024/01/16 09:12:12;;;;;;;10.55;6.60;;;;;;;5.14;77.17;100707.13;5092000;28;20021;-86
2024/01/16 09:14:37;;;;;;;9.35;6.15;;;;;;;4.96;77.40;100684.28;5108566;28;20792;-85
2024/01/16 09:17:03;;;;;;;10.15;6.30;;;;;;;5.18;77.29;100710.03;5074871;28;20036;-84
2024/01/16 09:19:29;;;;;;;9.38;6.60;;;;;;;5.21;77.10;100717.16;5072703;28;20420;-84
2024/01/16 09:21:55;;;;;;;10.07;6.22;;;;;;;4.96;77.47;100667.84;5101196;28;20023;-85
2024/01/16 09:24:21;;;;;;;10.50;6.63;;;;;;;5.14;77.28;100704.53;5095866;28;20493;-84
2024/01/16 09:26:47;;;;;;;9.10;6.70;;;;;;;5.03;77.37;100691.69;5091088;28;20107;-85
2024/01/16 09:29:14;;;;;;;10.30;6.80;;;;;;;4.93;77.33;100693.47;5092687;28;20147;-86
2024/01/16 09:31:41;;;;;;;10.57;7.15;;;;;;;5.25;77.02;100748.56;5091648;28;20093;-85
2024/01/16 09:34:06;;;;;;;9.70;6.38;;;;;;;4.85;77.43;100687.75;5082475;28;20520;-84
2024/01/16 09:36:35;;;;;;;9.55;5.95;;;;;;;5.05;77.22;100703.06;5091826;28;20098;-84
2024/01/16 09:39:02;;;;;;;8.73;6.07;;;;;;;5.06;77.38;100716.94;5103854;28;20016;-85
2024/01/16 09:41:28;;;;;;;9.38;6.00;;;;;;;5.09;77.34;100717.13;5079970;28;20039;-85
2024/01/16 09:43:54;;;;;;;10.82;6.63;;;;;;;5.22;76.83;100742.25;5091533;28;20421;-85
2024/01/16 09:46:24;;;;;;;10.05;6.85;;;;;;;5.14;76.89;100725.25;5093678;28;20031;-85
2024/01/16 09:48:51;;;;;;;10.15;6.88;;;;;;;5.26;76.96;100752.06;5084090;28;20035;-85
2024/01/16 09:51:17;;;;;;;8.43;5.95;;;;;;;5.19;77.19;100732.56;5090510;28;20024;-84
2024/01/16 09:53:43;;;;;;;9.82;6.50;;;;;;;5.21;77.45;100764.66;5094426;28;20417;-85
2024/01/16 09:56:15;;;;;;;7.97;5.97;;;;;;;5.22;77.19;100745.72;5091431;28;20020;-85
2024/01/16 09:58:41;;;;;;;8.27;5.55;;;;;;;5.11;77.53;100738.84;5093387;28;20024;-85
2024/01/16 10:01:06;;;;;;;9.32;6.10;;;;;;;5.06;77.28;100740.22;5079400;28;20513;-86
2024/01/16 10:03:34;;;;;;;8.93;5.82;;;;;;;4.97;77.15;100726.56;5084718;28;20033;-86
2024/01/16 10:06:06;;;;;;;8.35;5.90;;;;;;;5.07;77.01;100753.25;5110335;28;20034;-85
2024/01/16 10:08:32;;;;;;;8.98;6.13;;;;;;;5.24;77.31;100777.81;5092503;28;20024;-86
2024/01/16 10:10:58;;;;;;;9.32;6.38;;;;;;;5.22;77.32;100768.13;5098382;28;20042;-86
2024/01/16 10:13:26;;;;;;;10.95;6.38;;;;;;;5.28;77.32;100782.44;5087761;28;20511;-86
2024/01/16 10:15:55;;;;;;;8.48;6.05;;;;;;;5.29;77.40;100773.91;5090266;28;20485;-85
2024/01/16 10:18:28;;;;;;;8.27;6.03;;;;;;;5.17;76.97;100751.38;5079059;28;20409;-86
2024/01/16 10:20:54;;;;;;;8.75;6.05;;;;;;;5.13;77.24;100762.28;5089438;28;20528;-86
2024/01/16 10:23:27;;;;;;;9.25;5.78;;;;;;;4.67;77.21;100688.13;5093047;28;20024;-85
2024/01/16 10:26:09;;;;;;;8.07;5.93;;;;;;;5.19;77.20;100781.75;5089339;28;20129;-85
2024/01/16 10:28:39;;;;;;;9.07;6.30;;;;;;;5.10;77.27;100774.19;5065443;28;20555;-87
2024/01/16 10:34:59;;;;;;;8.43;5.80;;;;;;;4.94;77.38;100757.41;5028063;28;20052;-86
2024/01/16 10:37:47;;;;;;;10.45;6.38;;;;;;;5.25;77.29;100818.47;5016090;28;20120;-85
2024/01/16 10:40:59;;;;;;;8.38;5.65;;;;;;;5.35;77.48;100826.91;5000117;28;20025;-86
2024/01/16 10:43:25;;;;;;;8.38;5.55;;;;;;;4.90;77.39;100759.72;5028581;28;20045;-86
2024/01/16 10:46:11;;;;;;;8.73;5.82;;;;;;;4.92;77.17;100769.31;5011690;28;20052;-86
2024/01/16 10:49:36;;;;;;;10.57;6.03;;;;;;;5.30;77.39;100824.00;4993577;28;20053;-86
2024/01/16 10:52:31;;;;;;;8.82;5.40;;;;;;;5.05;77.16;100795.34;5063245;28;20568;-85
2024/01/16 10:55:07;;;;;;;8.18;5.25;;;;;;;5.22;77.48;100819.91;5090676;28;20159;-86
2024/01/16 10:58:30;;;;;;;8.50;5.47;;;;;;;5.42;77.01;100837.88;5079107;28;20064;-87
2024/01/16 11:01:16;;;;;;;7.13;4.88;;;;;;;5.30;77.71;100824.88;5084200;28;20036;-86
2024/01/16 11:03:49;;;;;;;8.30;5.45;;;;;;;5.33;77.38;100834.56;5088965;28;20027;-87
2024/01/16 11:06:17;;;;;;;7.80;5.07;;;;;;;5.15;77.43;100800.44;5087151;28;20020;-85
2024/01/16 11:08:45;;;;;;;7.93;4.82;;;;;;;4.96;77.25;100756.72;5075915;28;20516;-88
2024/01/16 11:11:13;;;;;;;7.43;5.07;;;;;;;5.25;77.19;100821.06;5081540;28;20401;-89
2024/01/16 11:13:40;;;;;;;7.18;4.93;;;;;;;5.26;77.37;100816.78;5078276;28;20031;-88
2024/01/16 11:16:07;;;;;;;8.15;5.22;;;;;;;5.21;77.20;100808.66;5074238;28;20512;-88
2024/01/16 11:19:00;;;;;;;8.27;5.38;;;;;;;4.89;77.33;100752.78;5087459;28;20024;-86
2024/01/16 11:22:39;;;;;;;7.55;5.07;;;;;;;5.42;77.57;100852.47;5083686;28;20100;-87
2024/01/16 11:25:37;;;;;;;8.00;5.40;;;;;;;5.12;77.19;100800.19;5078288;28;20052;-86
2024/01/16 11:28:14;;;;;;;7.07;4.85;;;;;;;5.20;77.38;100821.47;5088310;28;20040;-85
2024/01/16 11:30:53;;;;;;;8.07;5.13;;;;;;;5.51;77.46;100876.50;5105854;28;20036;-86
2024/01/16 11:33:35;;;;;;;6.88;5.07;;;;;;;5.49;77.13;100867.72;5089235;28;20038;-85
2024/01/16 11:36:01;;;;;;;7.28;4.88;;;;;;;5.25;77.41;100826.25;5087546;28;20028;-86
2024/01/16 11:39:20;;;;;;;6.40;5.00;;;;;;;5.54;77.18;100870.66;5087930;28;20119;-86
2024/01/16 11:42:28;;;;;;;8.27;5.03;;;;;;;5.56;77.11;100871.66;5088112;28;20047;-86